NCAR-RAP Real-Time Weather Data

Output produced by METARs form (10 April 2020  07:19 UTC)
found at http://weather.rap.ucar.edu/surface/
 
KBRL 100653Z AUTO 31007KT 10SM CLR 00/M07 A3011 RMK AO2 SLP201 T00001072
KBRL 100553Z AUTO 31008KT 10SM CLR 01/M07 A3011 RMK AO2 SLP202 T00111072 10050 20006 401170006 53012
KBRL 100453Z AUTO 30008KT 10SM CLR 01/M08 A3010 RMK AO2 SLP195 T00111078
KBRL 100153Z AUTO 32015G22KT 10SM CLR 03/M09 A3005 RMK AO2 PK WND 32026/0124 SLP181 T00331089
KBRL 092353Z AUTO 33018G32KT 10SM FEW065 BKN085 05/M09 A2999 RMK AO2 PK WND 30039/2306 SLP162 60000 T00501089 10117 20050 53024
KBRL 092253Z AUTO 31021G38KT 10SM BKN075 BKN090 06/M10 A2996 RMK AO2 PK WND 31038/2249 SLP150 T00611100
KBRL 092153Z AUTO 31019G32KT 10SM FEW031 SCT055 BKN065 07/M04 A2994 RMK AO2 PK WND 33042/2056 RAB39E47 SLP141 P0000 T00671039
KBRL 092053Z AUTO 33023G37KT 8SM BKN047 BKN060 BKN100 08/M03 A2992 RMK AO2 PK WND 32037/2049 SLP135 T00781028 53011
KBRL 091953Z AUTO 32024G39KT 8SM OVC070 09/M06 A2988 RMK AO2 PK WND 32039/1952 SLP120 T00891056
KBRL 091853Z AUTO 30017G33KT 5SM HZ FEW002 BKN080 BKN100 11/M06 A2988 RMK AO2 PK WND 31033/1841 SLP119 T01111056
KBRL 091753Z AUTO 30015G29KT 10SM BKN080 BKN095 09/M06 A2989 RMK AO2 PK WND 28031/1729 SLP123 T00941061 10106 20017 56012
KBRL 091653Z AUTO 28013G24KT 10SM SCT060 BKN080 11/M04 A2989 RMK AO2 PK WND 24028/1606 SLP124 T01061039
KBRL 091553Z AUTO 27013G24KT 10SM SCT060 10/M02 A2992 RMK AO2 PK WND 29027/1542 SLP132 T01001022
KBRL 091453Z AUTO 27009KT 10SM CLR 08/M03 A2992 RMK AO2 SLP135 T00781028 58008
KBRL 091353Z AUTO 28008KT 10SM CLR 07/M03 A2993 RMK AO2 SLP138 T00671028
KBRL 091253Z AUTO 28005KT 10SM CLR 04/M03 A2995 RMK AO2 SLP144 T00441028
KBRL 091153Z AUTO 28003KT 10SM CLR 02/M03 A2995 RMK AO2 SLP144 70004 T00171033 10078 20017 50004
KBRL 091053Z AUTO 30004KT 10SM CLR 03/M03 A2995 RMK AO2 SLP143 T00281033
KBRL 090953Z AUTO 31006KT 10SM CLR 04/M03 A2994 RMK AO2 SLP141 T00391033
KBRL 090853Z AUTO 33011G20KT 10SM CLR 06/M04 A2994 RMK AO2 SLP137 T00561039 53008